KB1DML-5 Weather Reports


Display with metric or nautical units.
time (UTC)temp
F
wind
direction
speed
MPH
gust
MPH
rain 1hr
in
rain 24hr
in
rain mn
in
humidity
%
barometer
mb
20210922161516 75 180 14.0 22.0 0.00 0.02 0.01 80 1023.7
20210922161016 75 180 15.0 21.0 0.00 0.02 0.01 79 1023.8
20210922160516 75 180 17.0 26.0 0.00 0.02 0.01 80 1023.7
20210922160016 75 180 13.0 19.0 0.00 0.02 0.01 79 1023.8
20210922155516 74 203 13.0 19.0 0.00 0.02 0.01 80 1023.8
20210922155016 74 180 14.0 22.0 0.00 0.02 0.01 80 1023.9
20210922154516 74 203 15.0 22.0 0.00 0.02 0.01 80 1023.9
20210922154016 74 180 13.0 22.0 0.00 0.02 0.01 81 1024.0
20210922153516 73 180 13.0 19.0 0.00 0.02 0.01 81 1024.0
20210922153016 73 180 12.0 18.0 0.00 0.02 0.01 81 1024.1
20210922152516 73 180 13.0 21.0 0.00 0.02 0.01 81 1024.1
20210922152016 73 203 13.0 19.0 0.00 0.02 0.01 80 1024.1
20210922151516 73 180 16.0 24.0 0.00 0.02 0.01 81 1024.2
20210922151015 73 180 14.0 22.0 0.00 0.02 0.01 81 1024.3
20210922150516 73 203 16.0 22.0 0.00 0.02 0.01 80 1024.4
20210922150016 73 203 17.0 24.0 0.00 0.02 0.01 81 1024.4
20210922145516 73 203 18.0 25.0 0.00 0.02 0.01 81 1024.4
20210922145016 73 203 17.0 24.0 0.00 0.02 0.01 81 1024.4
20210922144516 73 203 15.0 23.0 0.00 0.02 0.01 81 1024.6
20210922144016 73 180 15.0 21.0 0.00 0.02 0.01 81 1024.5
20210922143515 73 180 13.0 20.0 0.00 0.02 0.01 81 1024.6
20210922143016 73 180 14.0 19.0 0.00 0.02 0.01 81 1024.6
20210922142515 73 180 12.0 17.0 0.00 0.02 0.01 81 1024.6
20210922142015 73 180 13.0 21.0 0.00 0.02 0.01 81 1024.6
20210922141516 73 180 15.0 21.0 0.00 0.02 0.01 81 1024.7
20210922141015 72 180 14.0 23.0 0.00 0.02 0.01 83 1024.6
20210922140515 72 180 12.0 18.0 0.00 0.02 0.01 84 1024.6
20210922140015 71 180 14.0 22.0 0.00 0.02 0.01 84 1024.6
20210922135516 71 180 14.0 24.0 0.00 0.02 0.01 84 1024.5
20210922135016 71 180 14.0 21.0 0.00 0.02 0.01 83 1024.6
20210922134515 72 180 15.0 22.0 0.00 0.02 0.01 83 1024.6
20210922134015 72 180 15.0 23.0 0.00 0.02 0.01 83 1024.6
20210922133515 72 180 14.0 23.0 0.00 0.02 0.01 83 1024.6
20210922133016 72 203 15.0 23.0 0.00 0.02 0.01 83 1024.6
20210922132515 72 180 16.0 26.0 0.00 0.02 0.01 83 1024.6
20210922132015 72 180 16.0 22.0 0.00 0.02 0.01 83 1024.7
20210922131515 72 203 17.0 27.0 0.00 0.02 0.01 83 1024.7
20210922131015 72 203 16.0 22.0 0.00 0.02 0.01 84 1024.8
20210922130515 71 203 18.0 28.0 0.00 0.02 0.01 84 1024.7
20210922130015 71 203 16.0 22.0 0.00 0.02 0.01 85 1024.8
20210922125515 71 203 16.0 23.0 0.00 0.02 0.01 86 1024.7
20210922125015 70 180 15.0 19.0 0.00 0.02 0.01 87 1024.8
20210922124515 70 180 14.0 20.0 0.00 0.02 0.01 88 1024.9
20210922124015 70 180 14.0 22.0 0.00 0.02 0.01 88 1024.8
20210922123515 70 180 13.0 18.0 0.00 0.02 0.01 89 1024.9
20210922123015 69 180 12.0 17.0 0.00 0.02 0.01 89 1024.9
20210922122515 69 180 14.0 22.0 0.00 0.02 0.01 89 1024.8
20210922122016 69 180 11.0 16.0 0.00 0.02 0.01 90 1024.9
20210922121515 69 203 13.0 20.0 0.00 0.02 0.01 91 1024.9
20210922121015 69 203 12.0 17.0 0.00 0.02 0.01 92 1024.9
20210922120515 68 203 13.0 22.0 0.00 0.02 0.01 93 1024.9
20210922120015 68 203 13.0 23.0 0.00 0.02 0.01 93 1024.9
20210922115515 68 203 12.0 16.0 0.00 0.02 0.01 94 1024.8
20210922115015 67 203 12.0 18.0 0.00 0.02 0.01 94 1024.8
20210922114515 67 180 11.0 14.0 0.00 0.02 0.01 94 1024.8
20210922114015 67 180 10.0 14.0 0.00 0.02 0.01 95 1024.8
20210922113515 67 180 11.0 16.0 0.00 0.02 0.01 95 1024.8
20210922113015 67 180 10.0 15.0 0.00 0.02 0.01 95 1024.9
20210922112515 67 180 9.0 12.0 0.00 0.02 0.01 95 1024.8
20210922112015 67 180 8.0 14.0 0.00 0.02 0.01 95 1024.9
20210922111515 67 180 7.0 11.0 0.00 0.02 0.01 95 1024.9
20210922111015 67 180 8.0 12.0 0.00 0.02 0.01 95 1024.9
20210922110515 67 180 8.0 12.0 0.00 0.02 0.01 95 1024.9
20210922110015 67 180 8.0 11.0 0.00 0.02 0.01 95 1025.0
20210922105515 67 180 9.0 12.0 0.00 0.02 0.01 95 1024.9
20210922105015 67 203 10.0 13.0 0.00 0.02 0.01 95 1025.0
20210922104515 67 180 9.0 14.0 0.00 0.02 0.01 95 1024.8
20210922104015 67 180 9.0 13.0 0.00 0.02 0.01 95 1024.8
20210922103515 67 180 9.0 13.0 0.00 0.02 0.01 95 1024.8
20210922103015 67 180 8.0 12.0 0.00 0.02 0.01 95 1024.8
20210922102515 67 180 8.0 14.0 0.00 0.02 0.01 95 1024.8
20210922102015 67 180 9.0 13.0 0.00 0.02 0.01 95 1024.8
20210922101515 67 180 9.0 12.0 0.00 0.02 0.01 95 1024.9
20210922101015 67 180 9.0 13.0 0.00 0.02 0.01 94 1024.8
20210922100515 67 180 10.0 18.0 0.00 0.02 0.01 95 1024.9
20210922100015 67 180 9.0 15.0 0.00 0.02 0.01 94 1024.9
20210922095515 67 180 10.0 13.0 0.00 0.02 0.01 94 1024.9
20210922095017 67 180 10.0 12.0 0.00 0.02 0.01 94 1024.9
20210922094517 67 180 10.0 16.0 0.00 0.02 0.01 94 1024.9
20210922094017 67 180 9.0 14.0 0.00 0.02 0.01 94 1025.0
20210922093517 67 180 9.0 13.0 0.00 0.02 0.01 94 1025.0
20210922093017 67 180 9.0 13.0 0.00 0.02 0.01 94 1025.1
20210922092517 67 180 9.0 12.0 0.00 0.02 0.01 94 1025.0
20210922092017 67 180 9.0 13.0 0.00 0.02 0.01 94 1025.0
20210922091517 67 180 10.0 13.0 0.00 0.02 0.01 94 1025.1
20210922091017 67 180 10.0 13.0 0.00 0.02 0.01 94 1025.3
20210922090517 67 180 9.0 12.0 0.00 0.02 0.01 94 1025.3
20210922090017 67 180 10.0 13.0 0.00 0.02 0.01 94 1025.3
20210922085517 67 203 9.0 12.0 0.00 0.02 0.01 94 1025.4
20210922085017 67 180 8.0 12.0 0.00 0.02 0.01 93 1025.4
20210922084517 67 180 8.0 11.0 0.00 0.02 0.01 93 1025.4
20210922084017 67 180 7.0 11.0 0.00 0.02 0.01 93 1025.4
20210922083517 67 180 8.0 11.0 0.00 0.02 0.01 93 1025.3
20210922083017 67 180 7.0 10.0 0.00 0.02 0.01 93 1025.4
20210922082517 67 180 7.0 11.0 0.00 0.02 0.01 93 1025.4
20210922082017 67 180 7.0 11.0 0.01 0.02 0.01 93 1025.3
20210922081517 67 180 7.0 11.0 0.01 0.02 0.01 93 1025.4
20210922081017 67 180 8.0 11.0 0.01 0.02 0.01 93 1025.4
20210922080517 67 180 8.0 12.0 0.01 0.02 0.01 93 1025.5
20210922080017 67 180 8.0 12.0 0.01 0.02 0.01 93 1025.4
20210922075517 67 180 7.0 10.0 0.01 0.02 0.01 93 1025.4
20210922075017 67 180 7.0 9.0 0.01 0.02 0.01 93 1025.5
20210922074517 67 180 6.0 9.0 0.01 0.02 0.01 93 1025.5
20210922074017 67 180 6.0 9.0 0.01 0.02 0.01 93 1025.5
20210922073517 67 180 5.0 7.0 0.01 0.02 0.01 93 1025.5
20210922073016 67 180 4.0 7.0 0.01 0.02 0.01 92 1025.7
20210922072517 67 180 4.0 7.0 0.01 0.02 0.01 92 1025.7
20210922072016 67 180 4.0 7.0 0.00 0.01 0.00 92 1025.7
20210922071517 67 203 5.0 8.0 0.00 0.01 0.00 92 1025.8
20210922071017 67 180 5.0 8.0 0.00 0.01 0.00 92 1025.9
20210922070516 67 180 5.0 6.0 0.00 0.01 0.00 92 1026.0
20210922070017 67 180 5.0 9.0 0.00 0.01 0.00 92 1026.1
20210922065517 67 180 6.0 9.0 0.00 0.01 0.00 92 1026.1
20210922065017 67 180 5.0 8.0 0.00 0.01 0.00 92 1026.1
20210922064516 67 180 6.0 9.0 0.00 0.01 0.00 92 1026.2
20210922064017 67 180 6.0 10.0 0.00 0.01 0.00 91 1026.2
20210922063516 67 203 5.0 6.0 0.00 0.01 0.00 91 1026.2
20210922063017 67 203 7.0 9.0 0.00 0.01 0.00 91 1026.3
20210922062516 67 203 7.0 10.0 0.00 0.01 0.00 91 1026.3
20210922062016 67 203 7.0 9.0 0.00 0.01 0.00 91 1026.4
20210922061516 68 180 8.0 11.0 0.00 0.01 0.00 91 1026.4
20210922061017 68 180 7.0 10.0 0.00 0.01 0.00 91 1026.4
20210922060516 68 180 7.0 10.0 0.00 0.01 0.00 91 1026.5
20210922060017 68 180 7.0 9.0 0.00 0.01 0.00 91 1026.6
20210922055520 68 203 7.0 10.0 0.00 0.01 0.00 91 1026.6
20210922055016 68 203 8.0 12.0 0.00 0.01 0.00 91 1026.7
20210922054516 68 203 10.0 13.0 0.00 0.01 0.00 92 1026.7
20210922054017 68 203 8.0 10.0 0.00 0.01 0.00 92 1026.7
20210922053517 68 203 8.0 11.0 0.00 0.01 0.00 92 1026.7
20210922053017 68 203 9.0 13.0 0.00 0.01 0.00 92 1026.8
20210922052516 68 203 9.0 14.0 0.00 0.01 0.00 92 1026.7
20210922052016 68 180 8.0 12.0 0.00 0.01 0.00 92 1026.7
20210922051516 68 203 9.0 13.0 0.00 0.01 0.00 92 1026.6
20210922051017 68 180 7.0 10.0 0.00 0.01 0.00 92 1026.7
20210922050517 68 180 8.0 13.0 0.00 0.01 0.00 92 1026.7
20210922050016 68 180 9.0 12.0 0.00 0.01 0.00 93 1026.8
20210922045517 68 180 9.0 14.0 0.00 0.01 0.00 93 1026.8
20210922045016 68 180 7.0 13.0 0.00 0.01 0.00 93 1026.8
20210922044516 68 180 9.0 14.0 0.00 0.01 0.00 93 1027.0
20210922044016 68 180 8.0 11.0 0.00 0.01 0.00 93 1027.0
20210922043516 68 180 9.0 13.0 0.00 0.01 0.00 93 1027.2
20210922043016 68 203 10.0 16.0 0.00 0.01 0.00 93 1027.1
20210922042516 68 180 9.0 11.0 0.00 0.01 0.00 93 1027.1
20210922042016 68 180 8.0 14.0 0.00 0.01 0.00 93 1027.2
20210922041516 68 203 9.0 12.0 0.00 0.01 0.00 93 1027.3
20210922041016 68 203 11.0 14.0 0.00 0.01 0.00 93 1027.4
20210922040516 68 203 11.0 16.0 0.00 0.01 0.00 93 1027.4
20210922040016 68 180 10.0 13.0 0.00 0.01 0.01 93 1027.4
20210922035515 68 203 11.0 15.0 0.00 0.02 0.01 92 1027.5
20210922035015 68 180 10.0 15.0 0.00 0.02 0.01 92 1027.4
20210922034515 68 203 11.0 16.0 0.00 0.02 0.01 92 1027.4
20210922034015 68 180 10.0 16.0 0.00 0.02 0.01 92 1027.4
20210922033515 68 180 10.0 15.0 0.00 0.02 0.01 92 1027.5
20210922033015 68 180 9.0 15.0 0.00 0.02 0.01 92 1027.5
20210922032515 68 180 9.0 14.0 0.00 0.02 0.01 91 1027.5
20210922032015 68 180 9.0 13.0 0.00 0.02 0.01 91 1027.5
20210922031516 68 180 9.0 14.0 0.00 0.02 0.01 91 1027.6
20210922031015 68 180 8.0 12.0 0.00 0.02 0.01 91 1027.6
20210922030515 68 180 8.0 14.0 0.00 0.02 0.01 91 1027.7
20210922030015 68 180 9.0 12.0 0.00 0.02 0.01 90 1027.7
20210922025515 68 180 10.0 15.0 0.00 0.02 0.01 90 1027.8
20210922025015 68 180 10.0 16.0 0.00 0.02 0.01 90 1027.7
20210922024515 68 180 11.0 16.0 0.00 0.02 0.01 90 1027.7
20210922024015 68 180 10.0 15.0 0.00 0.02 0.01 90 1027.9
20210922023515 68 180 10.0 18.0 0.00 0.02 0.01 90 1027.9
20210922023015 68 180 10.0 15.0 0.00 0.02 0.01 90 1028.0
20210922022515 68 180 10.0 15.0 0.00 0.02 0.01 90 1028.0
20210922022015 68 180 9.0 14.0 0.00 0.02 0.01 90 1028.0
20210922021515 68 180 7.0 11.0 0.00 0.02 0.01 90 1028.1
20210922021015 68 180 8.0 13.0 0.00 0.02 0.01 90 1028.1
20210922020515 68 180 8.0 11.0 0.00 0.02 0.01 90 1028.1
20210922020015 68 180 8.0 11.0 0.00 0.02 0.01 90 1028.1
20210922015515 68 180 8.0 14.0 0.00 0.02 0.01 90 1028.1
20210922015017 68 180 9.0 13.0 0.00 0.02 0.01 90 1028.1
20210922014515 68 180 8.0 12.0 0.00 0.02 0.01 90 1028.1
20210922014017 68 180 7.0 11.0 0.00 0.02 0.01 90 1028.1
20210922013517 68 180 7.0 12.0 0.00 0.02 0.01 91 1028.1
20210922013017 68 180 6.0 10.0 0.00 0.02 0.01 91 1028.1
20210922012517 68 180 7.0 11.0 0.00 0.02 0.01 91 1028.1
20210922012017 68 180 9.0 15.0 0.00 0.02 0.01 91 1028.1
20210922011517 68 180 10.0 16.0 0.00 0.02 0.01 91 1028.1
20210922011017 68 180 8.0 12.0 0.00 0.02 0.01 91 1028.2
20210922010517 68 180 11.0 18.0 0.00 0.02 0.01 91 1028.1
20210922010017 68 180 11.0 18.0 0.00 0.02 0.01 91 1028.1
20210922005517 68 180 10.0 17.0 0.00 0.02 0.01 91 1028.2
20210922005017 68 180 10.0 14.0 0.00 0.02 0.01 91 1028.1
20210922004517 68 180 9.0 14.0 0.00 0.02 0.01 91 1028.3
20210922004017 68 180 10.0 14.0 0.00 0.02 0.01 91 1028.2
20210922003517 68 180 9.0 14.0 0.00 0.02 0.01 91 1028.2
20210922003017 68 180 9.0 14.0 0.00 0.02 0.01 91 1028.2
20210922002517 67 180 9.0 16.0 0.00 0.02 0.01 91 1028.3
20210922002017 67 180 8.0 13.0 0.00 0.02 0.01 91 1028.2
20210922001517 67 180 8.0 12.0 0.00 0.02 0.01 91 1028.2
20210922001017 67 180 8.0 12.0 0.00 0.02 0.01 91 1028.3
20210922000517 67 180 7.0 12.0 0.00 0.02 0.01 91 1028.3
20210922000017 67 180 7.0 12.0 0.00 0.02 0.01 91 1028.3
20210921235517 67 135 7.0 12.0 0.00 0.02 0.01 91 1028.3
20210921235017 67 180 5.0 11.0 0.00 0.02 0.01 90 1028.3
20210921234517 67 180 5.0 11.0 0.00 0.02 0.01 90 1028.3
20210921234017 67 158 4.0 8.0 0.00 0.02 0.01 90 1028.3
20210921233517 67 180 5.0 8.0 0.00 0.02 0.01 90 1028.3
20210921233017 67 180 5.0 10.0 0.00 0.02 0.01 89 1028.2
20210921232517 67 135 5.0 10.0 0.00 0.02 0.01 89 1028.2
20210921232017 67 158 6.0 11.0 0.00 0.02 0.01 89 1028.2
20210921231517 67 135 5.0 9.0 0.00 0.02 0.01 89 1028.3
20210921231017 67 135 5.0 10.0 0.00 0.02 0.01 88 1028.3
20210921230517 67 135 5.0 8.0 0.00 0.02 0.01 89 1028.3
20210921230017 67 158 5.0 11.0 0.00 0.02 0.01 88 1028.3
20210921225517 68 180 5.0 10.0 0.00 0.02 0.01 88 1028.3
20210921225017 68 135 5.0 10.0 0.00 0.02 0.01 87 1028.3
20210921224517 68 135 4.0 8.0 0.00 0.02 0.01 87 1028.3
20210921224017 68 135 5.0 7.0 0.00 0.02 0.01 87 1028.3
20210921223517 68 135 5.0 9.0 0.00 0.02 0.01 86 1028.3
20210921223016 69 135 6.0 10.0 0.00 0.02 0.01 86 1028.3
20210921222516 69 135 5.0 9.0 0.00 0.02 0.01 85 1028.5
20210921222016 69 158 4.0 9.0 0.00 0.02 0.01 85 1028.4
20210921221516 69 135 4.0 7.0 0.00 0.02 0.01 84 1028.6
20210921221016 69 180 4.0 9.0 0.00 0.02 0.01 84 1028.4
20210921220516 69 158 5.0 9.0 0.00 0.02 0.01 84 1028.4
20210921220017 69 135 6.0 10.0 0.00 0.02 0.01 84 1028.4
20210921215517 69 158 5.0 9.0 0.00 0.02 0.01 84 1028.4
20210921215016 70 135 6.0 10.0 0.00 0.02 0.01 83 1028.3
20210921214517 70 135 5.0 8.0 0.00 0.02 0.01 82 1028.4
20210921214016 70 135 5.0 9.0 0.00 0.02 0.01 82 1028.4
20210921213516 70 135 6.0 10.0 0.00 0.02 0.01 82 1028.5
20210921213017 70 135 7.0 10.0 0.00 0.02 0.01 82 1028.5
20210921212517 70 135 7.0 11.0 0.00 0.02 0.01 82 1028.5
20210921212016 70 135 9.0 12.0 0.00 0.02 0.01 81 1028.6
20210921211516 71 135 6.0 9.0 0.00 0.02 0.01 81 1028.7
20210921211017 71 135 7.0 11.0 0.00 0.02 0.01 80 1028.7
20210921210516 71 180 7.0 10.0 0.00 0.02 0.01 80 1028.6
20210921210016 71 180 6.0 9.0 0.00 0.02 0.01 81 1028.6
20210921205516 71 180 5.0 9.0 0.00 0.02 0.01 80 1028.7
20210921205016 71 135 5.0 9.0 0.00 0.02 0.01 81 1028.7
20210921204516 70 113 9.0 11.0 0.00 0.02 0.01 80 1028.7
20210921204016 71 135 10.0 13.0 0.00 0.02 0.01 79 1028.8
20210921203516 71 135 7.0 12.0 0.00 0.02 0.01 79 1028.7
20210921203016 71 135 9.0 12.0 0.00 0.02 0.01 79 1028.6
20210921202516 71 180 6.0 11.0 0.00 0.02 0.01 79 1028.7
20210921202016 71 180 7.0 12.0 0.00 0.02 0.01 78 1028.6
20210921201516 71 135 7.0 11.0 0.00 0.02 0.01 79 1028.7
20210921201016 71 135 9.0 14.0 0.00 0.02 0.01 79 1028.7
20210921200516 70 135 10.0 13.0 0.00 0.02 0.01 80 1028.7
20210921200016 70 135 9.0 13.0 0.00 0.02 0.01 81 1028.6
20210921195516 70 135 9.0 14.0 0.00 0.02 0.01 81 1028.8
20210921195016 70 113 11.0 14.0 0.00 0.02 0.01 81 1028.8
20210921194516 70 113 10.0 13.0 0.00 0.02 0.01 80 1028.9
20210921194016 71 135 9.0 13.0 0.00 0.02 0.01 80 1029.0
20210921193517 71 135 10.0 14.0 0.00 0.02 0.01 79 1029.1
20210921193016 71 135 9.0 13.0 0.00 0.02 0.01 77 1029.1
20210921192516 72 135 8.0 12.0 0.00 0.02 0.01 77 1029.1
20210921192016 72 180 7.0 13.0 0.00 0.02 0.01 76 1029.1
20210921191516 72 180 8.0 12.0 0.00 0.02 0.01 76 1029.2
20210921191016 72 135 7.0 12.0 0.00 0.02 0.01 75 1029.3
20210921190516 72 180 8.0 12.0 0.00 0.02 0.01 77 1029.3
20210921190016 71 180 7.0 12.0 0.00 0.02 0.01 78 1029.4
20210921185516 71 135 8.0 12.0 0.00 0.02 0.01 78 1029.5
20210921185016 71 135 8.0 13.0 0.00 0.02 0.01 78 1029.5
20210921184516 71 135 10.0 15.0 0.00 0.02 0.01 78 1029.4
20210921184016 71 135 8.0 12.0 0.00 0.02 0.01 78 1029.6
20210921183516 71 135 8.0 13.0 0.00 0.02 0.01 77 1029.7
20210921183016 71 135 10.0 14.0 0.00 0.02 0.01 77 1029.8
20210921182516 72 113 8.0 15.0 0.00 0.02 0.01 75 1029.7
20210921182016 72 180 5.0 9.0 0.00 0.02 0.01 77 1029.8
20210921181516 72 180 7.0 13.0 0.00 0.02 0.01 76 1029.9
20210921181016 72 180 6.0 10.0 0.00 0.02 0.01 77 1029.9
20210921180516 72 180 8.0 12.0 0.01 0.02 0.01 75 1029.9
20210921180016 73 135 7.0 12.0 0.01 0.02 0.01 74 1030.0
20210921175516 73 180 6.0 10.0 0.01 0.02 0.01 75 1030.1
20210921175016 73 180 6.0 11.0 0.01 0.02 0.01 75 1030.2
20210921174516 73 203 9.0 13.0 0.01 0.02 0.01 75 1030.2
20210921174016 72 203 9.0 16.0 0.01 0.02 0.01 76 1030.2
20210921173516 72 135 6.0 10.0 0.01 0.02 0.01 76 1030.3
20210921173016 72 180 5.0 11.0 0.01 0.02 0.01 77 1030.4
20210921172516 72 135 4.0 10.0 0.01 0.02 0.01 76 1030.5
20210921172016 73 180 7.0 13.0 0.01 0.02 0.01 75 1030.5
20210921171516 73 203 9.0 15.0 0.01 0.02 0.01 75 1030.5
20210921171016 72 180 8.0 13.0 0.01 0.02 0.01 75 1030.7
20210921170516 72 180 6.0 10.0 0.00 0.01 0.00 75 1030.6
20210921170016 72 180 6.0 8.0 0.00 0.01 0.00 75 1030.7
20210921165516 72 203 6.0 9.0 0.00 0.01 0.00 75 1030.9
20210921165016 73 203 8.0 13.0 0.00 0.01 0.00 73 1030.8
20210921164516 73 180 5.0 9.0 0.00 0.01 0.00 74 1030.9
20210921164016 73 203 9.0 17.0 0.00 0.01 0.00 73 1030.8
20210921163516 73 203 9.0 12.0 0.00 0.01 0.00 73 1030.8
20210921163016 73 203 10.0 13.0 0.00 0.01 0.00 74 1030.8
20210921162516 73 203 7.0 11.0 0.00 0.01 0.00 74 1030.8
20210921162016 72 180 6.0 8.0 0.00 0.01 0.00 74 1030.7